Time;durP1;ratioP1;P1;durP2;ratioP2;P2;SDS_P1;SDS_P2;PMS_P1;PMS_P2;Temp;Humidity;BMP_temperature;BMP_pressure;BME280_temperature;BME280_humidity;BME280_pressure;Samples;Min_cycle;Max_cycle;Signal;HPM_P1;HPM_P2
2023/05/18 00:01:11;;;;;;;;;3.00;3.00;;;;;15.90;71.00;102268.22;5036564;28;45385;-83
2023/05/18 00:03:36;;;;;;;;;3.00;3.00;;;;;15.89;70.94;102269.09;5019312;28;45380;-80
2023/05/18 00:06:03;;;;;;;;;3.00;3.00;;;;;15.87;71.71;102263.75;5031284;28;45556;-82
2023/05/18 00:08:28;;;;;;;;;3.67;2.67;;;;;15.85;71.84;102257.50;5033695;28;46918;-80
2023/05/18 00:10:54;;;;;;;;;5.67;4.00;;;;;15.85;72.18;102261.94;5016163;28;45339;-79
2023/05/18 00:13:19;;;;;;;;;4.67;4.00;;;;;15.83;72.49;102256.59;5027295;28;45160;-83
2023/05/18 00:15:45;;;;;;;;;7.00;3.00;;;;;15.79;72.86;102249.44;5032660;28;62360;-80
2023/05/18 00:18:10;;;;;;;;;4.00;3.00;;;;;15.79;72.90;102248.53;5030569;28;45768;-80
2023/05/18 00:20:35;;;;;;;;;4.00;2.00;;;;;15.78;73.08;102252.97;5035909;28;67548;-80
2023/05/18 00:23:01;;;;;;;;;4.00;2.00;;;;;15.76;73.82;102259.16;5036540;28;45378;-79
2023/05/18 00:25:26;;;;;;;;;4.00;3.00;;;;;15.73;73.74;102252.03;5035636;28;45472;-81
2023/05/18 00:27:52;;;;;;;;;3.00;3.00;;;;;15.71;73.88;102253.75;5034220;28;68989;-79
2023/05/18 00:30:17;;;;;;;;;4.33;3.00;;;;;15.69;74.44;102260.84;5011864;28;63415;-81
2023/05/18 00:32:42;;;;;;;;;2.33;2.00;;;;;15.66;74.38;102245.75;5013839;28;45613;-81
2023/05/18 00:35:08;;;;;;;;;7.00;3.00;;;;;15.65;74.28;102257.25;5031394;28;45466;-80
2023/05/18 00:37:33;;;;;;;;;4.00;2.00;;;;;15.62;74.62;102248.31;5026405;28;46505;-81
2023/05/18 00:39:59;;;;;;;;;2.67;2.00;;;;;15.61;74.86;102252.75;5030822;28;65220;-80
2023/05/18 00:42:24;;;;;;;;;3.00;3.00;;;;;15.56;74.54;102249.13;5029953;28;45638;-85
2023/05/18 00:44:49;;;;;;;;;2.67;2.67;;;;;15.53;74.49;102253.50;5032680;28;45384;-81
2023/05/18 00:47:17;;;;;;;;;2.00;2.00;;;;;15.51;74.99;102258.81;5029312;28;54177;-80
2023/05/18 00:49:42;;;;;;;;;3.00;2.00;;;;;15.50;75.45;102246.38;5032272;28;45403;-83
2023/05/18 00:52:08;;;;;;;;;5.00;2.00;;;;;15.48;75.60;102247.22;5035919;28;45329;-82
2023/05/18 00:54:34;;;;;;;;;2.00;2.00;;;;;15.51;76.25;102257.91;5014713;28;45575;-81
2023/05/18 00:57:03;;;;;;;;;3.00;1.00;;;;;15.46;76.84;102256.09;5035833;28;46521;-82
2023/05/18 00:59:29;;;;;;;;;1.00;1.00;;;;;15.47;76.77;102254.31;5028743;28;45399;-81
2023/05/18 01:01:55;;;;;;;;;3.00;2.00;;;;;15.43;76.52;102258.69;5018384;28;45383;-80
2023/05/18 01:04:20;;;;;;;;;2.00;2.00;;;;;15.40;76.44;102247.13;4995821;28;45395;-79
2023/05/18 01:06:46;;;;;;;;;5.67;2.33;;;;;15.36;76.33;102255.94;4982909;28;47683;-80
2023/05/18 01:09:12;;;;;;;;;2.00;2.00;;;;;15.34;76.74;102249.69;4994514;28;45435;-81
2023/05/18 01:11:58;;;;;;;;;4.33;2.33;;;;;15.32;76.92;102255.00;4957147;28;45343;-81
2023/05/18 01:14:44;;;;;;;;;2.00;2.00;;;;;15.31;77.71;102247.88;4983691;28;45538;-80
2023/05/18 01:17:32;;;;;;;;;2.00;2.00;;;;;15.30;78.01;102251.44;4962908;28;48913;-82
2023/05/18 01:19:57;;;;;;;;;2.00;2.00;;;;;15.28;77.97;102241.63;4972069;28;45406;-79
2023/05/18 01:22:37;;;;;;;;;3.00;2.00;;;;;15.26;78.17;102244.25;4996487;28;45463;-81
2023/05/18 01:25:13;;;;;;;;;4.00;3.00;;;;;15.24;78.22;102245.13;4978068;28;45386;-81
2023/05/18 01:27:41;;;;;;;;;3.67;3.67;;;;;15.22;77.99;102241.53;4978733;28;46356;-80
2023/05/18 01:30:07;;;;;;;;;4.00;1.33;;;;;15.19;78.45;102247.72;4976056;28;45302;-80
2023/05/18 01:32:39;;;;;;;;;6.00;4.33;;;;;15.16;78.88;102237.91;4994945;28;45778;-79
2023/05/18 01:35:05;;;;;;;;;3.00;3.00;;;;;15.14;79.24;102249.41;4987622;28;45770;-80
2023/05/18 01:37:30;;;;;;;;;2.00;2.00;;;;;15.13;79.20;102250.28;4979079;28;46357;-81
2023/05/18 01:39:55;;;;;;;;;4.00;2.00;;;;;15.13;79.68;102252.94;4997617;28;62209;-79
2023/05/18 01:42:25;;;;;;;;;5.00;2.67;;;;;15.10;79.67;102250.22;4993432;28;63714;-81
2023/05/18 01:44:54;;;;;;;;;4.33;2.00;;;;;15.09;79.62;102253.78;4981051;28;45513;-79
2023/05/18 01:47:19;;;;;;;;;4.67;3.33;;;;;15.07;79.77;102263.47;4981125;28;46787;-79
2023/05/18 01:49:58;;;;;;;;;4.33;3.33;;;;;15.04;79.99;102253.69;4990163;28;45531;-79
2023/05/18 01:52:28;;;;;;;;;2.33;2.33;;;;;15.01;80.04;102258.94;4969212;28;45436;-80
2023/05/18 01:54:56;;;;;;;;;5.67;3.33;;;;;15.00;80.75;102262.50;4978298;28;45249;-81
2023/05/18 01:57:27;;;;;;;;;3.00;3.00;;;;;14.97;80.66;102259.81;4998455;28;45814;-81
2023/05/18 01:59:53;;;;;;;;;4.00;4.00;;;;;14.96;80.49;102265.97;4980180;28;45561;-79
2023/05/18 02:02:18;;;;;;;;;4.33;3.00;;;;;14.94;81.52;102265.06;4982605;28;45393;-80
2023/05/18 02:04:44;;;;;;;;;3.00;2.00;;;;;14.93;81.25;102257.97;5016402;28;45440;-79
2023/05/18 02:07:09;;;;;;;;;3.33;3.00;;;;;14.91;81.78;102265.00;4998730;28;47250;-81
2023/05/18 02:09:34;;;;;;;;;5.00;3.00;;;;;14.88;81.57;102263.19;5014149;28;67539;-78
2023/05/18 02:12:00;;;;;;;;;6.33;3.00;;;;;14.85;81.92;102260.47;5015356;28;45195;-79
2023/05/18 02:14:25;;;;;;;;;3.00;3.00;;;;;14.84;81.37;102268.44;5012281;28;45456;-81
2023/05/18 02:16:51;;;;;;;;;4.00;4.00;;;;;14.81;81.77;102266.63;5000225;28;46592;-82
2023/05/18 02:19:18;;;;;;;;;3.33;2.33;;;;;14.80;81.80;102269.25;5014076;28;45507;-79
2023/05/18 02:21:43;;;;;;;;;4.00;4.00;;;;;14.76;82.22;102262.13;5015095;28;45357;-81
2023/05/18 02:24:10;;;;;;;;;4.67;3.00;;;;;14.72;83.02;102261.16;5018873;28;45320;-81
2023/05/18 02:26:36;;;;;;;;;6.00;4.00;;;;;14.70;82.91;102264.63;5017615;28;47107;-79
2023/05/18 02:29:02;;;;;;;;;4.67;3.33;;;;;14.65;83.10;102262.81;5017711;28;45900;-79
2023/05/18 02:31:28;;;;;;;;;5.00;4.00;;;;;14.65;83.66;102269.91;4999310;28;45407;-81
2023/05/18 02:33:53;;;;;;;;;4.00;4.00;;;;;14.61;83.43;102268.94;5015430;28;45363;-79
2023/05/18 02:36:21;;;;;;;;;6.00;5.00;;;;;14.59;83.66;102269.78;5017097;28;60079;-81
2023/05/18 02:38:47;;;;;;;;;3.67;3.00;;;;;14.55;83.39;102267.97;5011999;28;45444;-81
2023/05/18 02:41:13;;;;;;;;;7.67;5.33;;;;;14.55;83.83;102270.63;4998598;28;45564;-81
2023/05/18 02:43:38;;;;;;;;;6.33;3.00;;;;;14.54;83.75;102268.78;5010410;28;45467;-81
2023/05/18 02:46:03;;;;;;;;;6.67;3.67;;;;;14.53;84.44;102275.88;5013727;28;60953;-80
2023/05/18 02:48:29;;;;;;;;;6.00;4.00;;;;;14.49;84.04;102266.09;4991562;28;46191;-80
2023/05/18 02:50:55;;;;;;;;;8.00;4.00;;;;;14.48;84.71;102266.94;4979411;28;45440;-80
2023/05/18 02:53:20;;;;;;;;;5.00;3.00;;;;;14.45;84.71;102274.81;5012858;28;45401;-79
2023/05/18 02:55:47;;;;;;;;;3.67;3.67;;;;;14.44;84.51;102273.03;4999468;28;50184;-81
2023/05/18 02:58:13;;;;;;;;;5.00;3.33;;;;;14.39;84.74;102267.66;4998192;28;45466;-78
2023/05/18 03:00:39;;;;;;;;;6.67;4.00;;;;;14.36;84.97;102261.38;5005052;28;45576;-79
2023/05/18 03:03:04;;;;;;;;;4.33;4.00;;;;;14.35;85.34;102262.25;4998213;28;45492;-78
2023/05/18 03:05:29;;;;;;;;;7.00;3.67;;;;;14.34;85.57;102263.13;4993117;28;66731;-81
2023/05/18 03:07:56;;;;;;;;;5.00;5.00;;;;;14.31;85.74;102261.28;5013019;28;45643;-79
2023/05/18 03:10:22;;;;;;;;;6.00;4.33;;;;;14.30;85.59;102262.16;5005760;28;45411;-81
2023/05/18 03:12:47;;;;;;;;;4.00;4.00;;;;;14.26;85.94;102260.28;4998794;28;59256;-81
2023/05/18 03:15:15;;;;;;;;;6.00;5.00;;;;;14.24;85.85;102266.47;5010198;28;45783;-79
2023/05/18 03:17:41;;;;;;;;;5.67;4.00;;;;;14.23;86.00;102264.69;4987490;28;46275;-82
2023/05/18 03:20:09;;;;;;;;;4.33;4.33;;;;;14.21;86.27;102261.97;5006565;28;45515;-80
2023/05/18 03:22:34;;;;;;;;;7.67;5.00;;;;;14.20;86.28;102256.63;5010256;28;45388;-80
2023/05/18 03:25:01;;;;;;;;;7.00;4.00;;;;;14.17;86.36;102252.19;5009742;28;45825;-79
2023/05/18 03:27:26;;;;;;;;;6.33;4.00;;;;;14.15;86.40;102249.47;5008548;28;45539;-78
2023/05/18 03:29:52;;;;;;;;;5.67;5.00;;;;;14.14;86.89;102253.00;5016636;28;45456;-79
2023/05/18 03:32:17;;;;;;;;;5.00;4.00;;;;;14.12;86.69;102259.16;5007919;28;45594;-81
2023/05/18 03:34:44;;;;;;;;;2.67;2.67;;;;;14.10;87.29;102253.78;5012416;28;47310;-80
2023/05/18 03:37:09;;;;;;;;;7.33;5.00;;;;;14.09;87.41;102252.00;5011254;28;45695;-80
2023/05/18 03:39:34;;;;;;;;;5.33;4.00;;;;;14.08;87.53;102252.88;5011909;28;45954;-80
2023/05/18 03:42:00;;;;;;;;;4.33;4.33;;;;;14.08;86.91;102249.34;5009189;28;45501;-79
2023/05/18 03:44:26;;;;;;;;;3.00;3.00;;;;;14.06;87.05;102251.03;5013334;28;45642;-81
2023/05/18 03:46:51;;;;;;;;;4.00;3.67;;;;;14.03;87.67;102251.91;5013899;28;45302;-80
2023/05/18 03:49:16;;;;;;;;;4.33;3.33;;;;;14.02;87.37;102254.53;5003090;28;58259;-79
2023/05/18 03:51:42;;;;;;;;;4.00;4.00;;;;;14.01;87.57;102252.72;5008811;28;45326;-80
2023/05/18 03:54:07;;;;;;;;;5.00;3.00;;;;;13.99;88.10;102241.19;5001602;28;68887;-80
2023/05/18 03:56:32;;;;;;;;;4.33;4.33;;;;;13.98;87.90;102248.25;5011805;28;67383;-80
2023/05/18 03:58:58;;;;;;;;;13.00;5.00;;;;;13.96;87.75;102250.00;5009389;28;60982;-79
2023/05/18 04:01:23;;;;;;;;;3.33;3.33;;;;;13.92;88.04;102242.81;5006807;28;45433;-79
2023/05/18 04:03:50;;;;;;;;;5.67;3.67;;;;;13.93;88.11;102257.88;5012329;28;45716;-82
2023/05/18 04:06:15;;;;;;;;;9.67;5.00;;;;;13.92;88.36;102266.72;4987334;28;45412;-80
2023/05/18 04:08:42;;;;;;;;;8.00;5.00;;;;;13.90;88.23;102255.16;5008755;28;45359;-81
2023/05/18 04:11:07;;;;;;;;;4.00;4.00;;;;;13.91;88.42;102258.75;5009052;28;45583;-82
2023/05/18 04:13:33;;;;;;;;;6.33;6.00;;;;;13.89;88.33;102264.00;4999213;28;47706;-81
2023/05/18 04:15:59;;;;;;;;;5.67;4.00;;;;;13.89;88.17;102261.34;4998232;28;45544;-80
2023/05/18 04:18:28;;;;;;;;;6.00;3.00;;;;;13.87;88.33;102271.94;5007370;28;45859;-79
2023/05/18 04:20:55;;;;;;;;;4.75;3.75;;;;;13.87;88.51;102260.41;5013622;28;45410;-79
2023/05/18 04:23:20;;;;;;;;;6.00;4.00;;;;;13.85;89.10;102264.81;4996324;28;47724;-80
2023/05/18 04:25:46;;;;;;;;;6.33;5.00;;;;;13.86;89.06;102274.56;4999041;28;45424;-79
2023/05/18 04:28:11;;;;;;;;;7.67;5.67;;;;;13.82;88.76;102265.63;5016381;28;46105;-81
2023/05/18 04:30:36;;;;;;;;;5.33;4.33;;;;;13.83;88.71;102271.84;5016288;28;60970;-79
2023/05/18 04:33:03;;;;;;;;;8.00;5.00;;;;;13.80;89.35;102267.38;5014644;28;68902;-80
2023/05/18 04:35:30;;;;;;;;;9.67;4.67;;;;;13.78;89.40;102269.09;5012784;28;45610;-78
2023/05/18 04:37:56;;;;;;;;;8.33;5.00;;;;;13.80;89.35;102271.78;5015189;28;45518;-79
2023/05/18 04:40:21;;;;;;;;;7.00;5.33;;;;;13.80;89.44;102277.09;5015890;28;45507;-81
2023/05/18 04:42:46;;;;;;;;;8.25;5.00;;;;;13.80;89.11;102280.66;5009790;28;58925;-81
2023/05/18 04:45:16;;;;;;;;;8.25;7.75;;;;;13.78;89.82;102277.03;5012851;28;45443;-79
2023/05/18 04:47:45;;;;;;;;;7.50;4.75;;;;;13.76;89.64;102277.91;4994081;28;45467;-80
2023/05/18 04:50:12;;;;;;;;;7.25;5.00;;;;;13.76;90.18;102280.53;4993844;28;46260;-80
2023/05/18 04:52:40;;;;;;;;;5.00;5.00;;;;;13.79;90.21;102284.13;5016040;28;47030;-79
2023/05/18 04:55:09;;;;;;;;;8.33;5.67;;;;;13.77;90.30;102280.56;5014097;28;45389;-80
2023/05/18 04:57:35;;;;;;;;;10.00;6.00;;;;;13.80;90.41;102285.06;5016431;28;45435;-79
2023/05/18 05:00:04;;;;;;;;;9.00;7.00;;;;;13.81;90.40;102282.44;5014283;28;45345;-79
2023/05/18 05:02:30;;;;;;;;;5.50;5.50;;;;;13.84;90.47;102284.25;5015439;28;46815;-78
2023/05/18 05:04:55;;;;;;;;;12.67;5.67;;;;;13.85;90.34;102291.38;5015629;28;46965;-79
2023/05/18 05:07:21;;;;;;;;;7.00;4.75;;;;;13.88;90.86;102291.41;4990113;28;62779;-80
2023/05/18 05:09:46;;;;;;;;;8.33;5.00;;;;;13.90;90.46;102287.03;5010844;28;45471;-79
2023/05/18 05:12:11;;;;;;;;;6.25;5.25;;;;;13.93;90.68;102295.06;4994253;28;61981;-79
2023/05/18 05:14:36;;;;;;;;;6.33;6.33;;;;;13.94;90.56;102288.88;4994775;28;65135;-80
2023/05/18 05:17:02;;;;;;;;;12.33;6.00;;;;;13.96;90.62;102292.47;5012628;28;54138;-80
2023/05/18 05:19:27;;;;;;;;;6.00;5.00;;;;;13.97;90.92;102290.72;5009106;28;59723;-81
2023/05/18 05:21:52;;;;;;;;;10.25;5.25;;;;;13.99;90.92;102295.19;5014578;28;67905;-78
2023/05/18 05:24:18;;;;;;;;;8.75;6.75;;;;;14.02;90.68;102287.28;5013878;28;66523;-82
2023/05/18 05:26:43;;;;;;;;;8.75;5.25;;;;;14.05;90.37;102297.97;5008054;28;64051;-78
2023/05/18 05:29:08;;;;;;;;;6.33;4.00;;;;;14.06;90.43;102299.78;4997177;28;53859;-80
2023/05/18 05:31:34;;;;;;;;;8.33;6.67;;;;;14.09;90.19;102297.16;5014738;28;68231;-80
2023/05/18 05:33:59;;;;;;;;;9.00;5.00;;;;;14.11;90.23;102295.44;5014500;28;45512;-80
2023/05/18 05:36:24;;;;;;;;;11.33;7.00;;;;;14.13;90.24;102301.69;5003904;28;45848;-79
2023/05/18 05:38:50;;;;;;;;;11.33;7.33;;;;;14.16;89.66;102307.03;4991676;28;45654;-80
2023/05/18 05:41:15;;;;;;;;;7.67;7.00;;;;;14.16;89.72;102303.47;5014254;28;71856;-79
2023/05/18 05:43:40;;;;;;;;;10.67;6.00;;;;;14.18;89.88;102301.78;5013605;28;45673;-81
2023/05/18 05:46:06;;;;;;;;;12.00;9.67;;;;;14.23;90.21;102296.56;5014559;28;58214;-82
2023/05/18 05:48:31;;;;;;;;;8.33;6.00;;;;;14.27;90.00;102306.34;5010543;28;61525;-79
2023/05/18 05:50:56;;;;;;;;;8.67;5.00;;;;;14.31;90.35;102305.56;5012352;28;71408;-79
2023/05/18 05:53:22;;;;;;;;;7.00;6.33;;;;;14.37;90.15;102306.56;5013416;28;66678;-82
2023/05/18 05:55:47;;;;;;;;;8.00;5.67;;;;;14.41;90.08;102308.41;5007553;28;45476;-81
2023/05/18 05:58:13;;;;;;;;;5.67;5.00;;;;;14.46;90.00;102297.88;4997382;28;52783;-79
2023/05/18 06:00:38;;;;;;;;;8.33;5.00;;;;;14.49;90.11;102297.97;4993714;28;61145;-82
2023/05/18 06:03:03;;;;;;;;;12.33;7.00;;;;;14.56;89.63;102309.59;5008673;28;45349;-79
2023/05/18 06:05:29;;;;;;;;;6.67;5.00;;;;;14.61;90.23;102310.59;5008987;28;45541;-80
2023/05/18 06:07:55;;;;;;;;;5.67;5.00;;;;;14.66;89.99;102301.81;5012914;28;45470;-78
2023/05/18 06:10:21;;;;;;;;;6.33;5.67;;;;;14.72;90.10;102302.81;5015107;28;45435;-79
2023/05/18 06:12:46;;;;;;;;;6.00;6.00;;;;;14.75;89.75;102301.06;4996399;28;65743;-78
2023/05/18 06:15:11;;;;;;;;;10.33;7.00;;;;;14.78;89.99;102303.78;5012939;28;60943;-81
2023/05/18 06:17:37;;;;;;;;;10.33;5.00;;;;;14.84;89.53;102295.03;5011409;28;61254;-81
2023/05/18 06:20:05;;;;;;;;;5.00;5.00;;;;;14.90;89.56;102296.00;4996131;28;46631;-78
2023/05/18 06:22:31;;;;;;;;;13.33;6.00;;;;;14.96;88.45;102307.63;5009587;28;45265;-81
2023/05/18 06:24:56;;;;;;;;;6.00;5.00;;;;;15.00;88.63;102305.06;5014895;28;45371;-81
2023/05/18 06:27:22;;;;;;;;;6.00;6.00;;;;;15.06;88.46;102309.56;5011729;28;63869;-79
2023/05/18 06:29:47;;;;;;;;;9.00;6.67;;;;;15.12;88.19;102301.69;5018652;28;46248;-79
2023/05/18 06:32:13;;;;;;;;;7.67;5.00;;;;;15.16;88.31;102312.41;4991903;28;71167;-84
2023/05/18 06:34:38;;;;;;;;;8.67;7.00;;;;;15.23;88.14;102308.06;5018800;28;45215;-82
2023/05/18 06:37:04;;;;;;;;;7.33;6.00;;;;;15.27;87.93;102309.91;5017391;28;45412;-79
2023/05/18 06:39:29;;;;;;;;;7.00;5.67;;;;;15.32;87.45;102310.88;5015160;28;46313;-82
2023/05/18 06:41:55;;;;;;;;;8.00;6.67;;;;;15.36;87.44;102314.50;5015719;28;45281;-79
2023/05/18 06:44:20;;;;;;;;;6.67;6.00;;;;;15.39;86.74;102311.84;4994508;28;45505;-81
2023/05/18 06:46:46;;;;;;;;;7.67;6.00;;;;;15.43;87.12;102311.03;5015888;28;56870;-81
2023/05/18 06:49:12;;;;;;;;;7.33;6.67;;;;;15.50;86.95;102318.25;5012348;28;46684;-79
2023/05/18 06:51:37;;;;;;;;;9.67;8.67;;;;;15.55;86.94;102313.88;5012088;28;64066;-79
2023/05/18 06:54:03;;;;;;;;;9.67;6.67;;;;;15.59;86.26;102314.81;5004306;28;45910;-83
2023/05/18 06:56:28;;;;;;;;;4.67;4.67;;;;;15.63;85.87;102314.91;5015054;28;45551;-82
2023/05/18 06:58:54;;;;;;;;;8.67;6.00;;;;;15.68;86.41;102318.53;5003677;28;47512;-82
2023/05/18 07:01:19;;;;;;;;;8.33;7.00;;;;;15.75;85.91;102313.28;4994052;28;45571;-82
2023/05/18 07:03:44;;;;;;;;;7.00;5.67;;;;;15.81;85.83;102318.69;5149823;22;46414;-85
2023/05/18 07:06:10;;;;;;;;;7.67;5.67;;;;;15.90;85.67;102316.16;5075308;28;45604;-79
2023/05/18 07:08:39;;;;;;;;;5.67;5.33;;;;;15.96;85.79;102317.13;5070903;28;57419;-78
2023/05/18 07:11:05;;;;;;;;;10.67;7.00;;;;;16.07;85.83;102319.91;5068161;28;45361;-78
2023/05/18 07:13:30;;;;;;;;;5.00;5.00;;;;;16.17;84.46;102302.28;5075690;28;45383;-80
2023/05/18 07:15:56;;;;;;;;;8.00;5.33;;;;;16.24;83.99;102304.13;5077159;28;45640;-80
2023/05/18 07:18:22;;;;;;;;;9.00;6.00;;;;;16.30;83.64;102300.63;5069812;28;67368;-82
2023/05/18 07:20:47;;;;;;;;;6.00;5.67;;;;;16.39;83.64;102303.41;5052935;28;66332;-83
2023/05/18 07:23:13;;;;;;;;;9.00;7.00;;;;;16.44;82.96;102301.69;5071511;28;45508;-84
2023/05/18 07:25:38;;;;;;;;;6.67;6.00;;;;;16.52;82.12;102310.66;5073358;28;45669;-84
2023/05/18 07:28:04;;;;;;;;;8.67;7.00;;;;;16.54;81.60;102300.00;5074408;28;47036;-84
2023/05/18 07:30:29;;;;;;;;;10.67;6.67;;;;;16.57;81.84;102300.94;5054036;28;45504;-83
2023/05/18 07:32:55;;;;;;;;;8.00;6.00;;;;;16.55;80.52;102301.78;5073428;28;45777;-83
2023/05/18 07:35:21;;;;;;;;;8.33;6.00;;;;;16.58;80.70;102305.38;5073893;28;45637;-85
2023/05/18 07:37:48;;;;;;;;;7.67;5.00;;;;;16.58;80.22;102292.06;5071546;28;46291;-84
2023/05/18 07:40:13;;;;;;;;;11.00;7.00;;;;;16.61;80.04;102296.50;5076356;28;45567;-85
2023/05/18 07:42:39;;;;;;;;;10.33;7.33;;;;;16.65;79.39;102293.88;5055593;28;45495;-86
2023/05/18 07:45:05;;;;;;;;;7.33;7.00;;;;;16.71;79.61;102291.31;5073515;28;46623;-84
2023/05/18 07:47:31;;;;;;;;;10.00;7.00;;;;;16.78;79.50;102294.94;5074296;28;46763;-84
2023/05/18 07:49:56;;;;;;;;;7.00;4.67;;;;;16.84;77.94;102295.00;5075877;28;55644;-74
2023/05/18 07:52:21;;;;;;;;;7.67;6.33;;;;;16.85;77.72;102293.22;5075036;28;64358;-75
2023/05/18 07:54:47;;;;;;;;;7.00;5.67;;;;;16.84;77.60;102287.00;5071956;28;63271;-76
2023/05/18 07:57:12;;;;;;;;;9.00;4.67;;;;;16.90;77.72;102289.72;5069774;28;73066;-73
2023/05/18 07:59:38;;;;;;;;;8.33;6.33;;;;;16.94;77.12;102279.97;5069086;28;45334;-72
2023/05/18 08:02:04;;;;;;;;;7.33;6.67;;;;;16.99;78.66;102278.19;5066269;28;45379;-74
2023/05/18 08:04:29;;;;;;;;;5.67;5.00;;;;;17.11;78.50;102283.66;5068187;28;45295;-72
2023/05/18 08:06:58;;;;;;;;;7.67;4.67;;;;;17.16;77.41;102283.69;5066535;28;46272;-72
2023/05/18 08:09:24;;;;;;;;;10.67;7.00;;;;;17.21;77.78;102284.63;5066584;28;45482;-74
2023/05/18 08:11:50;;;;;;;;;6.00;4.33;;;;;17.26;76.64;102280.19;5065917;28;46105;-73
2023/05/18 08:14:16;;;;;;;;;6.00;4.00;;;;;17.28;75.73;102290.00;5043762;28;45688;-74
2023/05/18 08:16:41;;;;;;;;;8.00;7.00;;;;;17.27;74.79;102287.31;5066159;28;47477;-74
2023/05/18 08:19:06;;;;;;;;;9.33;6.33;;;;;17.27;75.04;102285.53;5070514;28;59797;-74
2023/05/18 08:21:32;;;;;;;;;6.00;5.00;;;;;17.27;74.65;102279.31;5072453;28;65329;-75
2023/05/18 08:23:57;;;;;;;;;9.33;7.00;;;;;17.29;75.00;102282.88;5068932;28;46656;-74
2023/05/18 08:26:23;;;;;;;;;10.00;5.67;;;;;17.29;76.15;102269.53;5069971;28;59260;-74
2023/05/18 08:28:48;;;;;;;;;9.33;7.00;;;;;17.31;73.57;102272.19;5075194;28;45436;-75
2023/05/18 08:31:14;;;;;;;;;8.33;6.00;;;;;17.28;74.08;102273.97;5072350;28;45208;-74
2023/05/18 08:33:40;;;;;;;;;10.00;6.00;;;;;17.26;73.47;102269.53;5074345;28;45430;-74
2023/05/18 08:36:07;;;;;;;;;4.67;4.67;;;;;17.22;73.64;102263.25;5074721;28;46611;-73
2023/05/18 08:38:33;;;;;;;;;9.67;6.00;;;;;17.19;73.21;102265.91;5075651;28;45459;-72
2023/05/18 08:41:32;;;;;;;;;6.00;5.00;;;;;17.17;73.61;102272.13;5072655;28;45587;-72
2023/05/18 08:44:03;;;;;;;;;6.33;5.00;;;;;17.15;73.93;102263.19;5066988;28;45541;-69
2023/05/18 08:46:39;;;;;;;;;7.00;6.00;;;;;17.11;73.08;102272.97;5060131;28;47288;-70
2023/05/18 08:49:05;;;;;;;;;8.67;6.00;;;;;17.11;72.61;102275.63;5075801;28;45434;-70
2023/05/18 08:51:34;;;;;;;;;5.33;5.00;;;;;17.04;72.03;102271.13;5074411;28;45513;-71
2023/05/18 08:54:01;;;;;;;;;6.67;5.00;;;;;17.02;72.39;102271.13;5073628;28;45648;-71
2023/05/18 08:56:30;;;;;;;;;9.00;5.00;;;;;16.98;72.80;102266.63;5057130;28;47266;-73
2023/05/18 08:58:56;;;;;;;;;10.33;6.67;;;;;16.99;72.57;102273.78;5071056;28;45486;-72
2023/05/18 09:01:28;;;;;;;;;4.00;4.00;;;;;16.98;71.72;102265.75;5050047;28;45442;-73
2023/05/18 09:03:56;;;;;;;;;5.00;4.33;;;;;16.95;70.62;102268.41;5028948;28;48024;-72
2023/05/18 09:06:27;;;;;;;;;5.00;5.00;;;;;16.94;70.95;102258.63;5062159;27;45804;-72
2023/05/18 09:08:53;;;;;;;;;5.67;5.33;;;;;16.93;69.34;102273.72;5064205;28;45561;-74
2023/05/18 09:11:20;;;;;;;;;12.33;7.00;;;;;16.90;70.59;102275.47;5066634;28;46023;-72
2023/05/18 09:13:47;;;;;;;;;6.67;4.33;;;;;16.90;70.71;102273.69;5032419;28;45601;-72
2023/05/18 09:16:13;;;;;;;;;6.00;4.67;;;;;16.92;71.67;102268.38;5058751;28;45881;-74
2023/05/18 09:18:38;;;;;;;;;8.00;6.33;;;;;16.98;69.87;102263.97;5065054;28;63828;-75
2023/05/18 09:21:03;;;;;;;;;7.00;5.00;;;;;16.99;69.84;102262.19;5059681;28;64576;-74
2023/05/18 09:23:29;;;;;;;;;11.00;8.00;;;;;16.95;68.66;102266.63;5067040;28;57614;-72
2023/05/18 09:25:55;;;;;;;;;8.67;6.00;;;;;16.96;69.92;102264.84;5062687;28;47030;-74
2023/05/18 09:28:32;;;;;;;;;10.33;5.33;;;;;16.99;71.16;102255.09;5047649;28;66005;-72
2023/05/18 09:30:58;;;;;;;;;11.67;6.00;;;;;17.07;69.57;102260.47;5060986;28;45942;-75
2023/05/18 09:33:23;;;;;;;;;9.33;6.00;;;;;17.15;69.62;102269.44;5040888;28;61825;-73
2023/05/18 09:35:50;;;;;;;;;8.67;5.00;;;;;17.22;70.12;102263.25;5064694;28;45796;-74
2023/05/18 09:38:20;;;;;;;;;8.67;6.67;;;;;17.28;70.76;102260.63;5042646;28;46886;-72
2023/05/18 09:40:47;;;;;;;;;9.33;7.33;;;;;17.41;71.18;102268.69;5062145;28;45556;-77
2023/05/18 09:43:12;;;;;;;;;8.33;8.00;;;;;17.48;70.25;102266.09;5062500;28;45450;-77
2023/05/18 09:45:42;;;;;;;;;7.00;7.00;;;;;17.59;70.32;102266.16;5063894;28;47563;-77
2023/05/18 09:48:08;;;;;;;;;8.67;7.00;;;;;17.66;70.40;102259.03;5061685;28;45530;-77
2023/05/18 09:50:36;;;;;;;;;11.33;6.33;;;;;17.73;70.27;102250.19;5063899;28;45501;-75
2023/05/18 09:53:02;;;;;;;;;10.67;7.33;;;;;17.78;69.76;102252.00;5066828;28;45693;-76
2023/05/18 09:55:28;;;;;;;;;11.00;8.67;;;;;17.87;69.76;102253.81;5054487;28;45664;-76
2023/05/18 09:57:55;;;;;;;;;9.33;8.00;;;;;17.98;69.64;102259.19;5049605;28;45535;-76
2023/05/18 10:00:20;;;;;;;;;7.67;7.00;;;;;18.05;70.01;102258.31;5055260;28;61606;-75
2023/05/18 10:02:49;;;;;;;;;9.33;8.00;;;;;18.13;69.46;102253.00;5066212;28;45541;-76
2023/05/18 10:05:19;;;;;;;;;9.33;7.67;;;;;18.22;69.75;102251.25;5068404;28;45699;-75
2023/05/18 10:07:45;;;;;;;;;10.00;7.00;;;;;18.32;70.17;102247.72;5062827;28;45473;-76
2023/05/18 10:10:10;;;;;;;;;13.33;7.67;;;;;18.36;69.74;102237.00;5069599;28;45482;-76
2023/05/18 10:12:38;;;;;;;;;10.33;9.00;;;;;18.42;69.19;102242.34;5070128;28;45613;-78
2023/05/18 10:15:08;;;;;;;;;8.33;7.67;;;;;18.50;68.83;102248.63;5066615;28;46628;-74
2023/05/18 10:17:33;;;;;;;;;8.33;8.00;;;;;18.54;69.23;102242.38;5068555;28;45499;-77
2023/05/18 10:19:59;;;;;;;;;9.00;5.67;;;;;18.62;69.14;102242.38;5062687;28;46012;-76
2023/05/18 10:22:25;;;;;;;;;10.00;8.33;;;;;18.71;68.83;102242.44;5066305;28;46475;-76
2023/05/18 10:24:53;;;;;;;;;10.33;8.00;;;;;18.83;68.79;102240.63;5050867;28;46951;-77
2023/05/18 10:27:23;;;;;;;;;13.00;7.00;;;;;18.91;68.75;102229.94;5062447;28;45541;-76
2023/05/18 10:29:51;;;;;;;;;7.33;7.33;;;;;19.00;67.94;102240.59;5065620;28;45550;-78
2023/05/18 10:32:19;;;;;;;;;7.67;7.67;;;;;19.04;67.17;102239.72;5044445;28;45583;-77
2023/05/18 10:34:45;;;;;;;;;11.33;8.00;;;;;19.05;66.04;102235.25;5045046;28;47035;-77
2023/05/18 10:37:12;;;;;;;;;16.33;10.00;;;;;19.06;66.25;102231.66;5070313;28;45543;-77
2023/05/18 10:39:39;;;;;;;;;9.33;8.67;;;;;19.07;66.39;102226.34;5043118;28;66564;-77
2023/05/18 10:42:07;;;;;;;;;5.33;2.67;;;;;19.10;65.81;102226.31;5063623;28;61393;-77
2023/05/18 10:44:33;;;;;;;;;7.00;6.67;;;;;19.16;65.64;102228.06;5050905;28;46575;-76
2023/05/18 10:46:59;;;;;;;;;5.67;5.67;;;;;19.19;65.47;102227.19;5067258;28;49705;-78
2023/05/18 10:49:25;;;;;;;;;10.00;7.00;;;;;19.24;65.33;102225.41;5052494;28;45574;-76
2023/05/18 10:51:54;;;;;;;;;17.33;13.67;;;;;19.28;64.91;102225.41;5068675;28;45348;-75
2023/05/18 10:54:22;;;;;;;;;48.00;38.50;;;;;19.34;64.52;102222.69;5062839;28;58302;-75
2023/05/18 10:56:50;;;;;;;;;189.25;170.00;;;;;19.41;64.09;102210.16;5069355;28;45434;-76
2023/05/18 10:59:17;;;;;;;;;78.75;66.75;;;;;19.49;64.11;102224.41;5068829;28;45490;-75
2023/05/18 11:01:43;;;;;;;;;82.50;73.50;;;;;19.55;63.70;102205.66;5052226;28;45557;-75
2023/05/18 11:04:09;;;;;;;;;97.00;83.00;;;;;19.63;63.52;102211.00;5066185;28;46688;-75
2023/05/18 11:06:35;;;;;;;;;46.25;38.75;;;;;19.70;62.72;102209.19;5066082;28;67743;-76
2023/05/18 11:09:00;;;;;;;;;201.50;174.25;;;;;19.75;62.32;102202.88;5059300;28;45545;-76
2023/05/18 11:11:29;;;;;;;;;111.50;101.25;;;;;19.77;61.19;102210.94;5068248;28;45920;-75
2023/05/18 11:13:59;;;;;;;;;277.25;235.25;;;;;19.78;61.55;102202.00;5068646;28;47815;-75
2023/05/18 11:16:33;;;;;;;;;50.50;36.75;;;;;19.85;60.38;102201.06;5066323;28;45571;-75
2023/05/18 11:19:04;;;;;;;;;917.20;675.00;;;;;19.90;60.51;102207.28;5068280;28;45889;-76